sensor_id;sensor_type;location;lat;lon;timestamp;temperature;humidity
5276;DHT22;2661;50.786;12.728;2023-02-11T00:01:32;0.50;99.90
5276;DHT22;2661;50.786;12.728;2023-02-11T00:03:59;0.60;99.90
5276;DHT22;2661;50.786;12.728;2023-02-11T00:06:27;0.60;99.90
5276;DHT22;2661;50.786;12.728;2023-02-11T00:08:54;0.70;99.90
5276;DHT22;2661;50.786;12.728;2023-02-11T00:11:21;0.70;99.90
5276;DHT22;2661;50.786;12.728;2023-02-11T00:13:50;0.70;99.90
5276;DHT22;2661;50.786;12.728;2023-02-11T00:16:18;0.80;99.90
5276;DHT22;2661;50.786;12.728;2023-02-11T00:18:44;0.80;99.90
5276;DHT22;2661;50.786;12.728;2023-02-11T00:21:12;0.80;99.90
5276;DHT22;2661;50.786;12.728;2023-02-11T00:23:40;0.80;99.90
5276;DHT22;2661;50.786;12.728;2023-02-11T00:26:10;0.80;99.90
5276;DHT22;2661;50.786;12.728;2023-02-11T00:28:37;0.80;99.90
5276;DHT22;2661;50.786;12.728;2023-02-11T00:31:04;0.90;99.90
5276;DHT22;2661;50.786;12.728;2023-02-11T00:33:31;0.90;99.90
5276;DHT22;2661;50.786;12.728;2023-02-11T00:35:57;0.90;99.90
5276;DHT22;2661;50.786;12.728;2023-02-11T00:38:24;0.90;99.90
5276;DHT22;2661;50.786;12.728;2023-02-11T00:40:51;0.90;99.90
5276;DHT22;2661;50.786;12.728;2023-02-11T00:43:17;0.90;99.90
5276;DHT22;2661;50.786;12.728;2023-02-11T00:45:44;0.90;99.90
5276;DHT22;2661;50.786;12.728;2023-02-11T00:48:10;1.00;99.90
5276;DHT22;2661;50.786;12.728;2023-02-11T00:50:37;1.00;99.90
5276;DHT22;2661;50.786;12.728;2023-02-11T00:53:03;1.00;99.90
5276;DHT22;2661;50.786;12.728;2023-02-11T00:55:30;1.00;99.90
5276;DHT22;2661;50.786;12.728;2023-02-11T00:57:57;1.00;99.90
5276;DHT22;2661;50.786;12.728;2023-02-11T01:00:25;1.10;99.90
5276;DHT22;2661;50.786;12.728;2023-02-11T01:02:52;1.10;99.90
5276;DHT22;2661;50.786;12.728;2023-02-11T01:05:19;1.30;99.90
5276;DHT22;2661;50.786;12.728;2023-02-11T01:07:46;1.30;99.90
5276;DHT22;2661;50.786;12.728;2023-02-11T01:10:13;1.30;99.90
5276;DHT22;2661;50.786;12.728;2023-02-11T01:12:39;1.30;99.90
5276;DHT22;2661;50.786;12.728;2023-02-11T01:15:06;1.30;99.90
5276;DHT22;2661;50.786;12.728;2023-02-11T01:17:33;1.10;99.90
5276;DHT22;2661;50.786;12.728;2023-02-11T01:20:04;1.20;99.90
5276;DHT22;2661;50.786;12.728;2023-02-11T01:22:31;1.10;99.90
5276;DHT22;2661;50.786;12.728;2023-02-11T01:24:57;1.10;99.90
5276;DHT22;2661;50.786;12.728;2023-02-11T01:27:24;1.10;99.90
5276;DHT22;2661;50.786;12.728;2023-02-11T01:29:50;1.10;99.90
5276;DHT22;2661;50.786;12.728;2023-02-11T01:32:17;1.10;99.90
5276;DHT22;2661;50.786;12.728;2023-02-11T01:34:43;1.10;99.90
5276;DHT22;2661;50.786;12.728;2023-02-11T01:37:10;1.20;99.90
5276;DHT22;2661;50.786;12.728;2023-02-11T01:39:37;1.20;99.90
5276;DHT22;2661;50.786;12.728;2023-02-11T01:42:03;1.30;99.90
5276;DHT22;2661;50.786;12.728;2023-02-11T01:44:31;1.30;99.90
5276;DHT22;2661;50.786;12.728;2023-02-11T01:46:58;1.40;99.90
5276;DHT22;2661;50.786;12.728;2023-02-11T01:49:26;1.40;99.90
5276;DHT22;2661;50.786;12.728;2023-02-11T01:54:21;1.40;99.90
5276;DHT22;2661;50.786;12.728;2023-02-11T01:57:07;1.50;99.90
5276;DHT22;2661;50.786;12.728;2023-02-11T02:00:05;1.40;99.90
5276;DHT22;2661;50.786;12.728;2023-02-11T02:03:18;1.50;99.90
5276;DHT22;2661;50.786;12.728;2023-02-11T02:05:31;1.40;99.90
5276;DHT22;2661;50.786;12.728;2023-02-11T02:10:25;1.40;99.90
5276;DHT22;2661;50.786;12.728;2023-02-11T02:12:52;1.40;99.90
5276;DHT22;2661;50.786;12.728;2023-02-11T02:15:23;1.40;99.90
5276;DHT22;2661;50.786;12.728;2023-02-11T02:18:00;1.40;99.90
5276;DHT22;2661;50.786;12.728;2023-02-11T02:20:31;1.40;99.90
5276;DHT22;2661;50.786;12.728;2023-02-11T02:23:10;1.40;99.90
5276;DHT22;2661;50.786;12.728;2023-02-11T02:25:59;1.50;99.90
5276;DHT22;2661;50.786;12.728;2023-02-11T02:28:44;1.50;99.90
5276;DHT22;2661;50.786;12.728;2023-02-11T02:31:24;1.70;99.90
5276;DHT22;2661;50.786;12.728;2023-02-11T02:33:54;1.70;99.90
5276;DHT22;2661;50.786;12.728;2023-02-11T02:36:27;1.80;99.90
5276;DHT22;2661;50.786;12.728;2023-02-11T02:42:25;1.80;99.90
5276;DHT22;2661;50.786;12.728;2023-02-11T02:44:52;1.80;99.90
5276;DHT22;2661;50.786;12.728;2023-02-11T02:47:18;1.80;99.90
5276;DHT22;2661;50.786;12.728;2023-02-11T02:49:45;1.90;99.90
5276;DHT22;2661;50.786;12.728;2023-02-11T02:52:16;1.90;99.90
5276;DHT22;2661;50.786;12.728;2023-02-11T02:54:54;1.90;99.90
5276;DHT22;2661;50.786;12.728;2023-02-11T02:57:34;2.00;99.90
5276;DHT22;2661;50.786;12.728;2023-02-11T03:00:07;2.00;99.90
5276;DHT22;2661;50.786;12.728;2023-02-11T03:02:39;2.00;99.90
5276;DHT22;2661;50.786;12.728;2023-02-11T03:05:16;2.00;99.90
5276;DHT22;2661;50.786;12.728;2023-02-11T03:07:46;2.00;99.90
5276;DHT22;2661;50.786;12.728;2023-02-11T03:10:15;2.00;99.90
5276;DHT22;2661;50.786;12.728;2023-02-11T03:12:42;2.00;99.90
5276;DHT22;2661;50.786;12.728;2023-02-11T03:15:09;2.10;99.90
5276;DHT22;2661;50.786;12.728;2023-02-11T03:17:38;2.10;99.90
5276;DHT22;2661;50.786;12.728;2023-02-11T03:20:06;2.10;99.90
5276;DHT22;2661;50.786;12.728;2023-02-11T03:22:36;2.10;99.90
5276;DHT22;2661;50.786;12.728;2023-02-11T03:25:04;2.20;99.90
5276;DHT22;2661;50.786;12.728;2023-02-11T03:27:38;2.20;99.90
5276;DHT22;2661;50.786;12.728;2023-02-11T03:30:10;2.20;99.90
5276;DHT22;2661;50.786;12.728;2023-02-11T03:32:39;2.10;99.90
5276;DHT22;2661;50.786;12.728;2023-02-11T03:35:10;2.10;99.90
5276;DHT22;2661;50.786;12.728;2023-02-11T03:37:50;2.10;99.90
5276;DHT22;2661;50.786;12.728;2023-02-11T03:40:27;2.10;99.90
5276;DHT22;2661;50.786;12.728;2023-02-11T03:45:24;2.10;99.90
5276;DHT22;2661;50.786;12.728;2023-02-11T03:47:55;2.10;99.90
5276;DHT22;2661;50.786;12.728;2023-02-11T03:50:23;2.10;99.90
5276;DHT22;2661;50.786;12.728;2023-02-11T03:52:51;2.20;99.90
5276;DHT22;2661;50.786;12.728;2023-02-11T03:55:19;2.20;99.90
5276;DHT22;2661;50.786;12.728;2023-02-11T03:57:46;2.20;99.90
5276;DHT22;2661;50.786;12.728;2023-02-11T04:00:13;2.20;99.90
5276;DHT22;2661;50.786;12.728;2023-02-11T04:02:40;2.30;99.90
5276;DHT22;2661;50.786;12.728;2023-02-11T04:05:08;2.30;99.90
5276;DHT22;2661;50.786;12.728;2023-02-11T04:07:35;2.40;99.90
5276;DHT22;2661;50.786;12.728;2023-02-11T04:10:02;2.40;99.90
5276;DHT22;2661;50.786;12.728;2023-02-11T04:12:28;2.50;99.90
5276;DHT22;2661;50.786;12.728;2023-02-11T04:14:55;2.40;99.90
5276;DHT22;2661;50.786;12.728;2023-02-11T04:17:22;2.30;99.90
5276;DHT22;2661;50.786;12.728;2023-02-11T04:19:48;2.40;99.90
5276;DHT22;2661;50.786;12.728;2023-02-11T04:22:15;2.50;99.90
5276;DHT22;2661;50.786;12.728;2023-02-11T04:24:41;2.50;99.90
5276;DHT22;2661;50.786;12.728;2023-02-11T04:27:09;2.50;99.90
5276;DHT22;2661;50.786;12.728;2023-02-11T04:29:36;2.40;99.90
5276;DHT22;2661;50.786;12.728;2023-02-11T04:32:02;2.40;99.90
5276;DHT22;2661;50.786;12.728;2023-02-11T04:34:29;2.40;99.90
5276;DHT22;2661;50.786;12.728;2023-02-11T04:36:55;2.30;99.90
5276;DHT22;2661;50.786;12.728;2023-02-11T04:39:22;2.30;99.90
5276;DHT22;2661;50.786;12.728;2023-02-11T04:41:48;2.20;99.90
5276;DHT22;2661;50.786;12.728;2023-02-11T04:44:15;2.30;99.90
5276;DHT22;2661;50.786;12.728;2023-02-11T04:46:41;2.30;99.90
5276;DHT22;2661;50.786;12.728;2023-02-11T04:49:10;2.40;99.90
5276;DHT22;2661;50.786;12.728;2023-02-11T04:51:39;2.40;99.90
5276;DHT22;2661;50.786;12.728;2023-02-11T04:54:06;2.40;99.90
5276;DHT22;2661;50.786;12.728;2023-02-11T04:56:33;2.50;99.90
5276;DHT22;2661;50.786;12.728;2023-02-11T04:58:59;2.50;99.90
5276;DHT22;2661;50.786;12.728;2023-02-11T05:01:26;2.40;99.90
5276;DHT22;2661;50.786;12.728;2023-02-11T05:03:52;2.50;99.90
5276;DHT22;2661;50.786;12.728;2023-02-11T05:06:19;2.60;99.90
5276;DHT22;2661;50.786;12.728;2023-02-11T05:08:45;2.60;99.90
5276;DHT22;2661;50.786;12.728;2023-02-11T05:11:16;2.50;99.90
5276;DHT22;2661;50.786;12.728;2023-02-11T05:13:43;2.60;99.90
5276;DHT22;2661;50.786;12.728;2023-02-11T05:16:10;2.70;99.90
5276;DHT22;2661;50.786;12.728;2023-02-11T05:18:37;2.60;99.90
5276;DHT22;2661;50.786;12.728;2023-02-11T05:21:07;2.70;99.90
5276;DHT22;2661;50.786;12.728;2023-02-11T05:23:34;2.70;99.90
5276;DHT22;2661;50.786;12.728;2023-02-11T05:26:01;2.60;99.90
5276;DHT22;2661;50.786;12.728;2023-02-11T05:28:27;2.50;99.90
5276;DHT22;2661;50.786;12.728;2023-02-11T05:30:54;2.40;99.90
5276;DHT22;2661;50.786;12.728;2023-02-11T05:33:21;2.40;99.90
5276;DHT22;2661;50.786;12.728;2023-02-11T05:35:48;2.40;99.90
5276;DHT22;2661;50.786;12.728;2023-02-11T05:38:15;2.40;99.90
5276;DHT22;2661;50.786;12.728;2023-02-11T05:40:42;2.50;99.90
5276;DHT22;2661;50.786;12.728;2023-02-11T05:43:08;2.60;99.90
5276;DHT22;2661;50.786;12.728;2023-02-11T05:45:35;2.50;99.90
5276;DHT22;2661;50.786;12.728;2023-02-11T05:48:01;2.60;99.90
5276;DHT22;2661;50.786;12.728;2023-02-11T05:50:28;2.60;99.90
5276;DHT22;2661;50.786;12.728;2023-02-11T05:52:55;2.70;99.90
5276;DHT22;2661;50.786;12.728;2023-02-11T05:55:21;2.70;99.90
5276;DHT22;2661;50.786;12.728;2023-02-11T05:57:48;2.80;99.90
5276;DHT22;2661;50.786;12.728;2023-02-11T06:00:15;2.80;99.90
5276;DHT22;2661;50.786;12.728;2023-02-11T06:02:41;2.80;99.90
5276;DHT22;2661;50.786;12.728;2023-02-11T06:05:08;2.80;99.90
5276;DHT22;2661;50.786;12.728;2023-02-11T06:07:35;2.70;99.90
5276;DHT22;2661;50.786;12.728;2023-02-11T06:10:02;2.60;99.90
5276;DHT22;2661;50.786;12.728;2023-02-11T06:12:28;2.60;99.90
5276;DHT22;2661;50.786;12.728;2023-02-11T06:14:55;2.60;99.90
5276;DHT22;2661;50.786;12.728;2023-02-11T06:17:21;2.70;99.90
5276;DHT22;2661;50.786;12.728;2023-02-11T06:19:48;2.70;99.90
5276;DHT22;2661;50.786;12.728;2023-02-11T06:22:16;2.60;99.90
5276;DHT22;2661;50.786;12.728;2023-02-11T06:24:42;2.60;99.90
5276;DHT22;2661;50.786;12.728;2023-02-11T06:27:27;2.60;99.90
5276;DHT22;2661;50.786;12.728;2023-02-11T06:29:53;2.70;99.90
5276;DHT22;2661;50.786;12.728;2023-02-11T06:32:20;2.70;99.90
5276;DHT22;2661;50.786;12.728;2023-02-11T06:35:06;2.80;99.90
5276;DHT22;2661;50.786;12.728;2023-02-11T06:37:37;2.80;99.90
5276;DHT22;2661;50.786;12.728;2023-02-11T06:40:03;2.80;99.90
5276;DHT22;2661;50.786;12.728;2023-02-11T06:42:30;2.80;99.90
5276;DHT22;2661;50.786;12.728;2023-02-11T06:44:56;2.80;99.90
5276;DHT22;2661;50.786;12.728;2023-02-11T06:47:23;2.80;99.90
5276;DHT22;2661;50.786;12.728;2023-02-11T06:49:50;2.80;99.90
5276;DHT22;2661;50.786;12.728;2023-02-11T06:52:16;2.80;99.90
5276;DHT22;2661;50.786;12.728;2023-02-11T06:54:43;2.80;99.90
5276;DHT22;2661;50.786;12.728;2023-02-11T06:57:09;2.70;99.90
5276;DHT22;2661;50.786;12.728;2023-02-11T06:59:36;2.80;99.90
5276;DHT22;2661;50.786;12.728;2023-02-11T07:02:02;2.80;99.90
5276;DHT22;2661;50.786;12.728;2023-02-11T07:04:29;2.70;99.90
5276;DHT22;2661;50.786;12.728;2023-02-11T07:06:55;2.70;99.90
5276;DHT22;2661;50.786;12.728;2023-02-11T07:09:22;2.70;99.90
5276;DHT22;2661;50.786;12.728;2023-02-11T07:11:48;2.80;99.90
5276;DHT22;2661;50.786;12.728;2023-02-11T07:14:15;2.80;99.90
5276;DHT22;2661;50.786;12.728;2023-02-11T07:16:41;2.70;99.90
5276;DHT22;2661;50.786;12.728;2023-02-11T07:19:08;2.70;99.90
5276;DHT22;2661;50.786;12.728;2023-02-11T07:21:35;2.70;99.90
5276;DHT22;2661;50.786;12.728;2023-02-11T07:24:04;2.70;99.90
5276;DHT22;2661;50.786;12.728;2023-02-11T07:26:31;2.70;99.90
5276;DHT22;2661;50.786;12.728;2023-02-11T07:28:57;2.80;99.90
5276;DHT22;2661;50.786;12.728;2023-02-11T07:31:25;2.90;99.90
5276;DHT22;2661;50.786;12.728;2023-02-11T07:33:52;2.90;99.90
5276;DHT22;2661;50.786;12.728;2023-02-11T07:36:19;2.90;99.90
5276;DHT22;2661;50.786;12.728;2023-02-11T07:38:46;2.90;99.90
5276;DHT22;2661;50.786;12.728;2023-02-11T07:41:13;3.00;99.90
5276;DHT22;2661;50.786;12.728;2023-02-11T07:43:40;3.00;99.90
5276;DHT22;2661;50.786;12.728;2023-02-11T07:46:08;3.00;99.90
5276;DHT22;2661;50.786;12.728;2023-02-11T07:48:35;3.10;99.90
5276;DHT22;2661;50.786;12.728;2023-02-11T07:51:36;3.10;99.90
5276;DHT22;2661;50.786;12.728;2023-02-11T07:53:56;3.20;99.90
5276;DHT22;2661;50.786;12.728;2023-02-11T07:56:22;3.20;99.90
5276;DHT22;2661;50.786;12.728;2023-02-11T07:58:49;3.20;99.90
5276;DHT22;2661;50.786;12.728;2023-02-11T08:01:18;3.20;99.90
5276;DHT22;2661;50.786;12.728;2023-02-11T08:03:45;3.30;99.90
5276;DHT22;2661;50.786;12.728;2023-02-11T08:06:12;3.30;99.90
5276;DHT22;2661;50.786;12.728;2023-02-11T08:08:39;3.30;99.90
5276;DHT22;2661;50.786;12.728;2023-02-11T08:11:13;3.30;99.90
5276;DHT22;2661;50.786;12.728;2023-02-11T08:13:40;3.20;99.90
5276;DHT22;2661;50.786;12.728;2023-02-11T08:16:07;3.30;99.90
5276;DHT22;2661;50.786;12.728;2023-02-11T08:18:34;3.30;99.90
5276;DHT22;2661;50.786;12.728;2023-02-11T08:21:05;3.30;99.90
5276;DHT22;2661;50.786;12.728;2023-02-11T08:23:34;3.30;99.90
5276;DHT22;2661;50.786;12.728;2023-02-11T08:26:02;3.30;99.90
5276;DHT22;2661;50.786;12.728;2023-02-11T08:28:29;3.40;99.90
5276;DHT22;2661;50.786;12.728;2023-02-11T08:30:55;3.40;99.90
5276;DHT22;2661;50.786;12.728;2023-02-11T08:33:22;3.40;99.90
5276;DHT22;2661;50.786;12.728;2023-02-11T08:35:49;3.40;99.90
5276;DHT22;2661;50.786;12.728;2023-02-11T08:38:15;3.50;99.90
5276;DHT22;2661;50.786;12.728;2023-02-11T08:40:42;3.50;99.90
5276;DHT22;2661;50.786;12.728;2023-02-11T08:43:08;3.50;99.90
5276;DHT22;2661;50.786;12.728;2023-02-11T08:45:36;3.50;99.90
5276;DHT22;2661;50.786;12.728;2023-02-11T08:48:02;3.50;99.90
5276;DHT22;2661;50.786;12.728;2023-02-11T08:50:29;3.60;99.90
5276;DHT22;2661;50.786;12.728;2023-02-11T08:52:56;3.60;99.90
5276;DHT22;2661;50.786;12.728;2023-02-11T08:55:22;3.60;99.90
5276;DHT22;2661;50.786;12.728;2023-02-11T08:57:49;3.60;99.90
5276;DHT22;2661;50.786;12.728;2023-02-11T09:00:15;3.60;99.90
5276;DHT22;2661;50.786;12.728;2023-02-11T09:02:42;3.60;99.90
5276;DHT22;2661;50.786;12.728;2023-02-11T09:05:09;3.60;99.90
5276;DHT22;2661;50.786;12.728;2023-02-11T09:07:35;3.60;99.90
5276;DHT22;2661;50.786;12.728;2023-02-11T09:10:02;3.70;99.90
5276;DHT22;2661;50.786;12.728;2023-02-11T09:12:29;3.70;99.90
5276;DHT22;2661;50.786;12.728;2023-02-11T09:14:55;3.80;99.90
5276;DHT22;2661;50.786;12.728;2023-02-11T09:17:22;3.80;99.90
5276;DHT22;2661;50.786;12.728;2023-02-11T09:19:48;3.90;99.90
5276;DHT22;2661;50.786;12.728;2023-02-11T09:22:15;3.90;99.90
5276;DHT22;2661;50.786;12.728;2023-02-11T09:24:42;3.90;99.90
5276;DHT22;2661;50.786;12.728;2023-02-11T09:27:08;3.90;99.90
5276;DHT22;2661;50.786;12.728;2023-02-11T09:29:35;3.90;99.90
5276;DHT22;2661;50.786;12.728;2023-02-11T09:32:01;3.90;99.90
5276;DHT22;2661;50.786;12.728;2023-02-11T09:34:28;3.90;99.90
5276;DHT22;2661;50.786;12.728;2023-02-11T09:36:55;4.00;99.90
5276;DHT22;2661;50.786;12.728;2023-02-11T09:39:21;4.00;99.90
5276;DHT22;2661;50.786;12.728;2023-02-11T09:41:53;4.00;99.90
5276;DHT22;2661;50.786;12.728;2023-02-11T09:44:25;4.00;99.90
5276;DHT22;2661;50.786;12.728;2023-02-11T09:46:54;3.90;99.90
5276;DHT22;2661;50.786;12.728;2023-02-11T09:49:27;3.80;99.90
5276;DHT22;2661;50.786;12.728;2023-02-11T09:52:04;3.90;99.90
5276;DHT22;2661;50.786;12.728;2023-02-11T09:54:34;3.90;99.90
5276;DHT22;2661;50.786;12.728;2023-02-11T09:57:02;3.90;99.90
5276;DHT22;2661;50.786;12.728;2023-02-11T09:59:29;3.90;99.90
5276;DHT22;2661;50.786;12.728;2023-02-11T10:02:18;3.80;99.90
5276;DHT22;2661;50.786;12.728;2023-02-11T10:07:27;3.80;99.90
5276;DHT22;2661;50.786;12.728;2023-02-11T10:10:07;3.80;99.90
5276;DHT22;2661;50.786;12.728;2023-02-11T10:15:13;3.80;99.90
5276;DHT22;2661;50.786;12.728;2023-02-11T10:20:13;3.80;99.90
5276;DHT22;2661;50.786;12.728;2023-02-11T10:22:46;4.00;99.90
5276;DHT22;2661;50.786;12.728;2023-02-11T10:25:22;3.90;99.90
5276;DHT22;2661;50.786;12.728;2023-02-11T10:27:49;3.90;99.90
5276;DHT22;2661;50.786;12.728;2023-02-11T10:30:32;4.00;99.90
5276;DHT22;2661;50.786;12.728;2023-02-11T10:33:22;4.00;99.90
5276;DHT22;2661;50.786;12.728;2023-02-11T10:35:50;4.00;99.90
5276;DHT22;2661;50.786;12.728;2023-02-11T10:38:17;4.00;99.90
5276;DHT22;2661;50.786;12.728;2023-02-11T10:40:43;4.10;99.90
5276;DHT22;2661;50.786;12.728;2023-02-11T10:43:15;4.20;99.90
5276;DHT22;2661;50.786;12.728;2023-02-11T10:45:48;4.30;99.90
5276;DHT22;2661;50.786;12.728;2023-02-11T10:51:07;4.40;99.90
5276;DHT22;2661;50.786;12.728;2023-02-11T10:53:40;4.40;99.90
5276;DHT22;2661;50.786;12.728;2023-02-11T10:56:06;4.50;99.90
5276;DHT22;2661;50.786;12.728;2023-02-11T10:58:39;4.60;99.90
5276;DHT22;2661;50.786;12.728;2023-02-11T11:01:06;4.70;99.90
5276;DHT22;2661;50.786;12.728;2023-02-11T11:03:49;4.70;99.90
5276;DHT22;2661;50.786;12.728;2023-02-11T11:06:16;4.80;99.90
5276;DHT22;2661;50.786;12.728;2023-02-11T11:08:53;4.80;99.90
5276;DHT22;2661;50.786;12.728;2023-02-11T11:11:20;4.80;99.90
5276;DHT22;2661;50.786;12.728;2023-02-11T11:13:59;4.80;99.90
5276;DHT22;2661;50.786;12.728;2023-02-11T11:16:27;4.90;99.90
5276;DHT22;2661;50.786;12.728;2023-02-11T11:24:17;4.90;99.90
5276;DHT22;2661;50.786;12.728;2023-02-11T11:26:46;5.00;99.90
5276;DHT22;2661;50.786;12.728;2023-02-11T11:29:15;4.90;99.90
5276;DHT22;2661;50.786;12.728;2023-02-11T11:36:51;5.10;99.90
5276;DHT22;2661;50.786;12.728;2023-02-11T11:41:49;5.00;99.90
5276;DHT22;2661;50.786;12.728;2023-02-11T11:49:38;5.10;99.90
5276;DHT22;2661;50.786;12.728;2023-02-11T11:54:41;5.00;99.90
5276;DHT22;2661;50.786;12.728;2023-02-11T11:57:10;5.10;99.90
5276;DHT22;2661;50.786;12.728;2023-02-11T11:59:37;5.20;99.90
5276;DHT22;2661;50.786;12.728;2023-02-11T12:09:39;5.40;99.90
5276;DHT22;2661;50.786;12.728;2023-02-11T12:19:53;5.40;99.90
5276;DHT22;2661;50.786;12.728;2023-02-11T12:35:56;5.30;99.90
5276;DHT22;2661;50.786;12.728;2023-02-11T12:38:28;5.20;99.90
5276;DHT22;2661;50.786;12.728;2023-02-11T12:43:41;5.10;99.90
5276;DHT22;2661;50.786;12.728;2023-02-11T12:46:21;5.20;99.90
5276;DHT22;2661;50.786;12.728;2023-02-11T12:51:20;5.20;99.90
5276;DHT22;2661;50.786;12.728;2023-02-11T12:56:41;5.20;99.90
5276;DHT22;2661;50.786;12.728;2023-02-11T12:59:12;5.10;99.90
5276;DHT22;2661;50.786;12.728;2023-02-11T13:01:41;5.10;99.90
5276;DHT22;2661;50.786;12.728;2023-02-11T13:06:45;5.00;99.90
5276;DHT22;2661;50.786;12.728;2023-02-11T13:09:17;5.10;99.90
5276;DHT22;2661;50.786;12.728;2023-02-11T13:11:50;5.10;99.90
5276;DHT22;2661;50.786;12.728;2023-02-11T13:14:26;5.00;99.90
5276;DHT22;2661;50.786;12.728;2023-02-11T13:16:54;5.00;99.90
5276;DHT22;2661;50.786;12.728;2023-02-11T13:19:57;5.00;99.90
5276;DHT22;2661;50.786;12.728;2023-02-11T13:22:18;5.00;99.90
5276;DHT22;2661;50.786;12.728;2023-02-11T13:24:52;5.00;99.90
5276;DHT22;2661;50.786;12.728;2023-02-11T13:32:24;4.90;99.90
5276;DHT22;2661;50.786;12.728;2023-02-11T13:37:19;4.90;99.90
5276;DHT22;2661;50.786;12.728;2023-02-11T13:39:57;4.90;99.90
5276;DHT22;2661;50.786;12.728;2023-02-11T13:42:24;4.80;99.90
5276;DHT22;2661;50.786;12.728;2023-02-11T13:44:51;4.80;99.90
5276;DHT22;2661;50.786;12.728;2023-02-11T13:49:50;4.90;99.90
5276;DHT22;2661;50.786;12.728;2023-02-11T13:52:31;4.80;99.90
5276;DHT22;2661;50.786;12.728;2023-02-11T13:57:39;4.80;99.90
5276;DHT22;2661;50.786;12.728;2023-02-11T14:00:42;4.80;99.90
5276;DHT22;2661;50.786;12.728;2023-02-11T14:22:03;4.70;99.90
5276;DHT22;2661;50.786;12.728;2023-02-11T14:24:38;4.70;99.90
5276;DHT22;2661;50.786;12.728;2023-02-11T14:27:07;4.70;99.90
5276;DHT22;2661;50.786;12.728;2023-02-11T14:35:04;4.70;99.90
5276;DHT22;2661;50.786;12.728;2023-02-11T14:37:50;4.70;99.90
5276;DHT22;2661;50.786;12.728;2023-02-11T14:40:27;4.70;99.90
5276;DHT22;2661;50.786;12.728;2023-02-11T14:42:55;4.60;99.90
5276;DHT22;2661;50.786;12.728;2023-02-11T14:45:24;4.60;99.90
5276;DHT22;2661;50.786;12.728;2023-02-11T14:47:54;4.60;99.90
5276;DHT22;2661;50.786;12.728;2023-02-11T14:50:24;4.70;99.90
5276;DHT22;2661;50.786;12.728;2023-02-11T14:52:52;4.70;99.90
5276;DHT22;2661;50.786;12.728;2023-02-11T14:55:32;4.60;99.90
5276;DHT22;2661;50.786;12.728;2023-02-11T14:58:10;4.60;99.90
5276;DHT22;2661;50.786;12.728;2023-02-11T15:00:45;4.70;99.90
5276;DHT22;2661;50.786;12.728;2023-02-11T15:06:01;4.50;99.90
5276;DHT22;2661;50.786;12.728;2023-02-11T15:08:28;4.60;99.90
5276;DHT22;2661;50.786;12.728;2023-02-11T15:10:56;4.50;99.90
5276;DHT22;2661;50.786;12.728;2023-02-11T15:13:24;4.50;99.90
5276;DHT22;2661;50.786;12.728;2023-02-11T15:15:57;4.50;99.90
5276;DHT22;2661;50.786;12.728;2023-02-11T15:18:25;4.50;99.90
5276;DHT22;2661;50.786;12.728;2023-02-11T15:20:54;4.50;99.90
5276;DHT22;2661;50.786;12.728;2023-02-11T15:23:22;4.40;99.90
5276;DHT22;2661;50.786;12.728;2023-02-11T15:25:50;4.50;99.90
5276;DHT22;2661;50.786;12.728;2023-02-11T15:28:25;4.50;99.90
5276;DHT22;2661;50.786;12.728;2023-02-11T15:33:27;4.40;99.90
5276;DHT22;2661;50.786;12.728;2023-02-11T15:35:55;4.40;99.90
5276;DHT22;2661;50.786;12.728;2023-02-11T15:38:22;4.40;99.90
5276;DHT22;2661;50.786;12.728;2023-02-11T15:40:59;4.30;99.90
5276;DHT22;2661;50.786;12.728;2023-02-11T15:46:19;4.40;99.90
5276;DHT22;2661;50.786;12.728;2023-02-11T15:48:48;4.30;99.90
5276;DHT22;2661;50.786;12.728;2023-02-11T15:51:31;4.30;99.90
5276;DHT22;2661;50.786;12.728;2023-02-11T15:54:02;4.30;99.90
5276;DHT22;2661;50.786;12.728;2023-02-11T15:56:39;4.30;99.90
5276;DHT22;2661;50.786;12.728;2023-02-11T16:01:45;4.40;99.90
5276;DHT22;2661;50.786;12.728;2023-02-11T16:04:20;4.40;99.90
5276;DHT22;2661;50.786;12.728;2023-02-11T16:06:47;4.40;99.90
5276;DHT22;2661;50.786;12.728;2023-02-11T16:16:54;4.50;99.90
5276;DHT22;2661;50.786;12.728;2023-02-11T16:19:21;4.40;99.90
5276;DHT22;2661;50.786;12.728;2023-02-11T16:21:51;4.40;99.90
5276;DHT22;2661;50.786;12.728;2023-02-11T16:24:26;4.40;99.90
5276;DHT22;2661;50.786;12.728;2023-02-11T16:26:54;4.40;99.90
5276;DHT22;2661;50.786;12.728;2023-02-11T16:29:23;4.40;99.90
5276;DHT22;2661;50.786;12.728;2023-02-11T16:31:50;4.40;99.90
5276;DHT22;2661;50.786;12.728;2023-02-11T16:34:21;4.40;99.90
5276;DHT22;2661;50.786;12.728;2023-02-11T16:36:49;4.40;99.90
5276;DHT22;2661;50.786;12.728;2023-02-11T16:39:16;4.40;99.90
5276;DHT22;2661;50.786;12.728;2023-02-11T16:41:43;4.40;99.90
5276;DHT22;2661;50.786;12.728;2023-02-11T16:44:10;4.40;99.90
5276;DHT22;2661;50.786;12.728;2023-02-11T16:46:36;4.40;99.90
5276;DHT22;2661;50.786;12.728;2023-02-11T16:49:10;4.30;99.90
5276;DHT22;2661;50.786;12.728;2023-02-11T16:51:38;4.40;99.90
5276;DHT22;2661;50.786;12.728;2023-02-11T16:54:05;4.40;99.90
5276;DHT22;2661;50.786;12.728;2023-02-11T16:56:31;4.40;99.90
5276;DHT22;2661;50.786;12.728;2023-02-11T16:58:58;4.30;99.90
5276;DHT22;2661;50.786;12.728;2023-02-11T17:01:24;4.40;99.90
5276;DHT22;2661;50.786;12.728;2023-02-11T17:03:51;4.30;99.90
5276;DHT22;2661;50.786;12.728;2023-02-11T17:06:19;4.30;99.90
5276;DHT22;2661;50.786;12.728;2023-02-11T17:08:46;4.30;99.90
5276;DHT22;2661;50.786;12.728;2023-02-11T17:11:12;4.30;99.90
5276;DHT22;2661;50.786;12.728;2023-02-11T17:13:42;4.30;99.90
5276;DHT22;2661;50.786;12.728;2023-02-11T17:16:11;4.30;99.90
5276;DHT22;2661;50.786;12.728;2023-02-11T17:18:41;4.30;99.90
5276;DHT22;2661;50.786;12.728;2023-02-11T17:21:07;4.30;99.90
5276;DHT22;2661;50.786;12.728;2023-02-11T17:23:34;4.40;99.90
5276;DHT22;2661;50.786;12.728;2023-02-11T17:26:00;4.30;99.90
5276;DHT22;2661;50.786;12.728;2023-02-11T17:28:27;4.30;99.90
5276;DHT22;2661;50.786;12.728;2023-02-11T17:30:54;4.30;99.90
5276;DHT22;2661;50.786;12.728;2023-02-11T17:33:20;4.20;99.90
5276;DHT22;2661;50.786;12.728;2023-02-11T17:35:47;4.20;99.90
5276;DHT22;2661;50.786;12.728;2023-02-11T17:38:13;4.10;1.00
5276;DHT22;2661;50.786;12.728;2023-02-11T17:40:40;4.10;1.00
5276;DHT22;2661;50.786;12.728;2023-02-11T17:43:06;4.10;1.00
5276;DHT22;2661;50.786;12.728;2023-02-11T17:45:33;4.10;1.00
5276;DHT22;2661;50.786;12.728;2023-02-11T17:48:00;4.10;1.00
5276;DHT22;2661;50.786;12.728;2023-02-11T17:50:26;4.00;1.00
5276;DHT22;2661;50.786;12.728;2023-02-11T17:52:55;3.90;1.00
5276;DHT22;2661;50.786;12.728;2023-02-11T17:55:21;3.90;1.00
5276;DHT22;2661;50.786;12.728;2023-02-11T17:57:48;3.90;1.00
5276;DHT22;2661;50.786;12.728;2023-02-11T18:00:15;3.90;1.00
5276;DHT22;2661;50.786;12.728;2023-02-11T18:02:41;3.90;1.00
5276;DHT22;2661;50.786;12.728;2023-02-11T18:05:08;3.90;1.00
5276;DHT22;2661;50.786;12.728;2023-02-11T18:07:34;3.90;16.10
5276;DHT22;2661;50.786;12.728;2023-02-11T18:10:01;3.80;70.10
5276;DHT22;2661;50.786;12.728;2023-02-11T18:12:28;3.80;99.90
5276;DHT22;2661;50.786;12.728;2023-02-11T18:14:54;3.80;99.90
5276;DHT22;2661;50.786;12.728;2023-02-11T18:17:23;3.80;99.90
5276;DHT22;2661;50.786;12.728;2023-02-11T18:19:53;3.80;99.90
5276;DHT22;2661;50.786;12.728;2023-02-11T18:22:20;3.80;99.90
5276;DHT22;2661;50.786;12.728;2023-02-11T18:24:50;3.80;1.00
5276;DHT22;2661;50.786;12.728;2023-02-11T18:27:16;3.90;1.00
5276;DHT22;2661;50.786;12.728;2023-02-11T18:29:43;4.00;1.00
5276;DHT22;2661;50.786;12.728;2023-02-11T18:32:09;4.00;1.00